createdAt,value
2023-05-21T00:01:22.242Z,42.23
2023-05-21T00:03:48.916Z,42.53
2023-05-21T00:06:15.729Z,42.62
2023-05-21T00:08:42.338Z,42.65
2023-05-21T00:11:08.848Z,42.32
2023-05-21T00:13:35.398Z,42.37
2023-05-21T00:16:02.465Z,42.49
2023-05-21T00:18:29.200Z,42.38
2023-05-21T00:20:55.729Z,42.20
2023-05-21T00:23:22.368Z,42.34
2023-05-21T00:25:49.020Z,42.16
2023-05-21T00:28:15.605Z,42.43
2023-05-21T00:30:42.702Z,42.56
2023-05-21T00:33:09.341Z,42.23
2023-05-21T00:35:36.108Z,42.44
2023-05-21T00:38:02.888Z,42.49
2023-05-21T00:40:29.520Z,42.38
2023-05-21T00:42:56.095Z,42.29
2023-05-21T00:45:22.680Z,42.25
2023-05-21T00:47:49.238Z,42.35
2023-05-21T00:50:15.869Z,42.54
2023-05-21T00:52:42.496Z,42.51
2023-05-21T00:55:09.068Z,42.45
2023-05-21T00:57:35.592Z,42.03
2023-05-21T01:00:02.202Z,42.42
2023-05-21T01:02:28.883Z,42.37
2023-05-21T01:04:55.465Z,42.42
2023-05-21T01:07:21.995Z,42.23
2023-05-21T01:09:48.584Z,42.56
2023-05-21T01:12:15.199Z,42.41
2023-05-21T01:14:41.789Z,42.42
2023-05-21T01:17:08.459Z,42.49
2023-05-21T01:19:35.151Z,42.50
2023-05-21T01:22:01.652Z,42.36
2023-05-21T01:24:28.190Z,42.57
2023-05-21T01:26:54.777Z,42.43
2023-05-21T01:29:21.342Z,42.50
2023-05-21T01:31:47.893Z,42.51
2023-05-21T01:34:14.436Z,42.12
2023-05-21T01:36:40.961Z,42.48
2023-05-21T01:39:07.549Z,42.40
2023-05-21T01:41:34.075Z,42.49
2023-05-21T01:44:00.613Z,42.44
2023-05-21T01:46:27.205Z,42.52
2023-05-21T01:48:53.853Z,42.77
2023-05-21T01:51:20.487Z,42.61
2023-05-21T01:53:47.074Z,42.42
2023-05-21T01:56:13.914Z,42.26
2023-05-21T01:58:40.486Z,42.22
2023-05-21T02:01:07.063Z,42.46
2023-05-21T02:03:33.890Z,42.36
2023-05-21T02:06:00.568Z,42.37
2023-05-21T02:08:27.095Z,42.26
2023-05-21T02:10:53.600Z,42.47
2023-05-21T02:13:20.154Z,42.37
2023-05-21T02:15:46.737Z,42.39
2023-05-21T02:18:13.270Z,42.66
2023-05-21T02:20:39.777Z,42.25
2023-05-21T02:23:06.279Z,42.23
2023-05-21T02:25:32.873Z,42.17
2023-05-21T02:27:59.427Z,42.50
2023-05-21T02:30:26.003Z,42.60
2023-05-21T02:32:52.587Z,42.58
2023-05-21T02:35:19.185Z,42.17
2023-05-21T02:37:45.711Z,42.36
2023-05-21T02:40:12.255Z,42.40
2023-05-21T02:42:38.839Z,42.53
2023-05-21T02:45:05.293Z,42.46
2023-05-21T02:47:31.856Z,42.41
2023-05-21T02:49:58.303Z,42.10
2023-05-21T02:52:24.757Z,42.52
2023-05-21T02:54:51.284Z,42.21
2023-05-21T02:57:17.801Z,41.97
2023-05-21T02:59:44.265Z,42.25
2023-05-21T03:02:10.752Z,42.62
2023-05-21T03:04:37.294Z,42.39
2023-05-21T03:07:03.735Z,42.33
2023-05-21T03:09:30.248Z,42.33
2023-05-21T03:11:56.742Z,42.21
2023-05-21T03:14:23.262Z,42.19
2023-05-21T03:16:49.782Z,42.20
2023-05-21T03:19:16.311Z,42.34
2023-05-21T03:21:42.876Z,42.72
2023-05-21T03:24:09.385Z,42.31
2023-05-21T03:26:35.845Z,42.41
2023-05-21T03:29:02.339Z,42.41
2023-05-21T03:31:28.881Z,41.99
2023-05-21T03:33:55.342Z,42.49
2023-05-21T03:36:21.836Z,42.19
2023-05-21T03:38:48.300Z,42.56
2023-05-21T03:41:14.721Z,42.34
2023-05-21T03:43:41.231Z,42.35
2023-05-21T03:46:07.781Z,42.38
2023-05-21T03:48:34.241Z,42.34
2023-05-21T03:51:00.722Z,42.42
2023-05-21T03:53:27.334Z,42.22
2023-05-21T03:55:53.850Z,42.45
2023-05-21T03:58:20.423Z,42.50
2023-05-21T04:00:47.006Z,42.48
2023-05-21T04:03:13.699Z,42.33
2023-05-21T04:05:40.348Z,42.52
2023-05-21T04:08:06.858Z,42.53
2023-05-21T04:10:33.376Z,42.45
2023-05-21T04:12:59.962Z,42.34
2023-05-21T04:15:26.506Z,42.34
2023-05-21T04:17:53.181Z,41.94
2023-05-21T04:20:19.800Z,42.30
2023-05-21T04:22:46.314Z,42.53
2023-05-21T04:25:12.809Z,42.37
2023-05-21T04:27:39.408Z,42.02
2023-05-21T04:30:06.008Z,42.14
2023-05-21T04:32:32.697Z,42.27
2023-05-21T04:34:59.301Z,42.27
2023-05-21T04:37:25.870Z,42.40
2023-05-21T04:39:52.439Z,42.13
2023-05-21T04:42:18.959Z,42.32
2023-05-21T04:44:45.465Z,42.10
2023-05-21T04:47:12.051Z,42.15
2023-05-21T04:49:38.565Z,42.39
2023-05-21T04:52:05.007Z,42.03
2023-05-21T04:54:31.623Z,42.03
2023-05-21T04:56:58.267Z,42.31
2023-05-21T04:59:24.853Z,42.45
2023-05-21T05:01:51.370Z,42.16
2023-05-21T05:04:17.890Z,42.07
2023-05-21T05:06:44.462Z,42.10
2023-05-21T05:09:11.058Z,42.23
2023-05-21T05:11:37.624Z,41.77
2023-05-21T05:14:04.187Z,42.12
2023-05-21T05:16:30.727Z,41.92
2023-05-21T05:18:57.382Z,42.26
2023-05-21T05:21:24.015Z,41.85
2023-05-21T05:23:50.550Z,41.91
2023-05-21T05:26:17.115Z,41.77
2023-05-21T05:28:43.644Z,42.22
2023-05-21T05:31:10.292Z,42.17
2023-05-21T05:33:36.874Z,42.69
2023-05-21T05:36:03.349Z,42.55
2023-05-21T05:38:29.802Z,42.01
2023-05-21T05:40:56.346Z,42.24
2023-05-21T05:43:22.918Z,42.69
2023-05-21T05:45:49.537Z,42.69
2023-05-21T05:48:16.132Z,42.47
2023-05-21T05:50:42.649Z,42.54
2023-05-21T05:53:09.221Z,42.81
2023-05-21T05:55:35.878Z,42.92
2023-05-21T05:58:02.476Z,43.13
2023-05-21T06:00:29.000Z,42.88
2023-05-21T06:02:55.641Z,43.89
2023-05-21T06:05:22.208Z,43.88
2023-05-21T06:07:48.685Z,43.87
2023-05-21T06:10:15.145Z,44.59
2023-05-21T06:12:41.742Z,44.81
2023-05-21T06:15:08.323Z,44.48
2023-05-21T06:17:37.697Z,44.26
2023-05-21T06:20:04.206Z,44.17
2023-05-21T06:22:30.777Z,43.92
2023-05-21T06:24:57.313Z,43.97
2023-05-21T06:27:23.912Z,43.65
2023-05-21T06:29:50.501Z,43.48
2023-05-21T06:32:17.158Z,43.68
2023-05-21T06:34:43.741Z,43.83
2023-05-21T06:37:10.341Z,43.83
2023-05-21T06:39:37.928Z,43.55
2023-05-21T06:42:04.510Z,43.42
2023-05-21T06:44:31.040Z,43.26
2023-05-21T06:46:57.617Z,43.63
2023-05-21T06:49:24.147Z,43.42
2023-05-21T06:51:50.714Z,43.54
2023-05-21T06:54:17.341Z,43.38
2023-05-21T06:56:43.920Z,43.52
2023-05-21T06:59:10.453Z,43.31
2023-05-21T07:01:36.964Z,43.13
2023-05-21T07:04:03.500Z,43.49
2023-05-21T07:06:30.081Z,43.58
2023-05-21T07:08:56.660Z,43.86
2023-05-21T07:11:23.242Z,43.60
2023-05-21T07:13:49.829Z,44.15
2023-05-21T07:16:16.352Z,43.75
2023-05-21T07:18:43.023Z,43.94
2023-05-21T07:21:09.644Z,43.59
2023-05-21T07:23:36.172Z,43.23
2023-05-21T07:26:02.686Z,43.70
2023-05-21T07:28:29.331Z,43.42
2023-05-21T07:30:55.925Z,43.23
2023-05-21T07:33:22.632Z,43.19
2023-05-21T07:35:49.271Z,43.62
2023-05-21T07:38:15.839Z,43.47
2023-05-21T07:40:42.368Z,43.33
2023-05-21T07:43:08.871Z,44.73
2023-05-21T07:45:35.620Z,45.16
2023-05-21T07:48:02.580Z,45.57
2023-05-21T07:50:29.243Z,45.83
2023-05-21T07:52:55.846Z,46.62
2023-05-21T07:55:22.388Z,46.25
2023-05-21T07:57:49.014Z,46.19
2023-05-21T08:00:15.540Z,46.57
2023-05-21T08:02:42.289Z,46.34
2023-05-21T08:05:09.021Z,46.97
2023-05-21T08:07:35.708Z,46.69
2023-05-21T08:10:02.950Z,46.59
2023-05-21T08:12:29.688Z,46.44
2023-05-21T08:14:56.287Z,46.40
2023-05-21T08:17:22.860Z,46.09
2023-05-21T08:19:49.491Z,45.99
2023-05-21T08:22:16.075Z,46.28
2023-05-21T08:24:42.657Z,46.17
2023-05-21T08:27:09.223Z,45.94
2023-05-21T08:29:35.788Z,46.33
2023-05-21T08:32:02.379Z,45.98
2023-05-21T08:34:28.875Z,45.51
2023-05-21T08:36:55.330Z,45.60
2023-05-21T08:39:21.884Z,45.96
2023-05-21T08:41:48.340Z,45.79
2023-05-21T08:44:14.909Z,45.73
2023-05-21T08:46:41.451Z,45.58
2023-05-21T08:49:07.909Z,45.63
2023-05-21T08:51:34.465Z,45.50
2023-05-21T08:54:00.930Z,45.64
2023-05-21T08:56:27.400Z,45.56
2023-05-21T08:58:53.959Z,45.21
2023-05-21T09:01:20.506Z,45.30
2023-05-21T09:03:47.185Z,45.44
2023-05-21T09:06:13.748Z,45.45
2023-05-21T09:08:40.249Z,44.86
2023-05-21T09:11:06.782Z,44.94
2023-05-21T09:13:33.335Z,44.78
2023-05-21T09:15:59.808Z,44.75
2023-05-21T09:18:26.405Z,44.57
2023-05-21T09:20:52.912Z,44.53
2023-05-21T09:23:19.507Z,44.08
2023-05-21T09:25:46.035Z,44.29
2023-05-21T09:28:13.863Z,44.40
2023-05-21T09:30:40.902Z,44.51
2023-05-21T09:33:07.711Z,44.18
2023-05-21T09:35:36.063Z,44.58
2023-05-21T09:38:02.798Z,44.13
2023-05-21T09:40:29.378Z,43.96
2023-05-21T09:42:55.938Z,44.14
2023-05-21T09:45:22.451Z,44.17
2023-05-21T09:47:49.116Z,44.00
2023-05-21T09:50:15.666Z,43.82
2023-05-21T09:52:42.411Z,43.76
2023-05-21T09:55:08.976Z,44.31
2023-05-21T09:57:35.442Z,44.27
2023-05-21T10:00:02.082Z,45.08
2023-05-21T10:02:29.125Z,45.13
2023-05-21T10:04:55.655Z,45.42
2023-05-21T10:07:22.096Z,45.33
2023-05-21T10:09:51.405Z,45.43
2023-05-21T10:12:17.930Z,45.76
2023-05-21T10:14:44.422Z,45.42
2023-05-21T10:17:10.893Z,45.41
2023-05-21T10:19:37.344Z,45.39
2023-05-21T10:22:03.852Z,45.62
2023-05-21T10:24:30.342Z,45.55
2023-05-21T10:26:56.786Z,45.52
2023-05-21T10:29:23.314Z,45.51
2023-05-21T10:31:50.053Z,45.53
2023-05-21T10:34:16.847Z,46.00
2023-05-21T10:36:43.304Z,45.69
2023-05-21T10:39:09.794Z,45.84
2023-05-21T10:41:36.371Z,45.95
2023-05-21T10:44:02.901Z,45.75
2023-05-21T10:46:29.393Z,46.71
2023-05-21T10:48:55.843Z,46.35
2023-05-21T10:51:22.365Z,46.07
2023-05-21T10:53:48.885Z,46.10
2023-05-21T10:56:15.369Z,45.70
2023-05-21T10:58:41.942Z,46.14
2023-05-21T11:01:08.509Z,46.65
2023-05-21T11:03:37.393Z,45.99
2023-05-21T11:06:04.503Z,45.74
2023-05-21T11:08:31.024Z,45.49
2023-05-21T11:10:57.574Z,45.29
2023-05-21T11:13:24.067Z,45.64
2023-05-21T11:15:50.618Z,45.51
2023-05-21T11:18:17.175Z,45.46
2023-05-21T11:20:43.707Z,45.56
2023-05-21T11:23:10.329Z,45.43
2023-05-21T11:25:36.955Z,45.33
2023-05-21T11:28:03.514Z,45.53
2023-05-21T11:30:30.045Z,45.42
2023-05-21T11:32:56.629Z,45.24
2023-05-21T11:35:23.217Z,45.62
2023-05-21T11:37:49.700Z,45.47
2023-05-21T11:40:16.158Z,45.19
2023-05-21T11:42:42.623Z,45.10
2023-05-21T11:45:09.245Z,45.02
2023-05-21T11:47:35.862Z,44.71
2023-05-21T11:50:02.426Z,44.65
2023-05-21T11:52:28.918Z,44.47
2023-05-21T11:54:55.505Z,44.52
2023-05-21T11:57:21.988Z,44.26
2023-05-21T11:59:48.446Z,44.21
2023-05-21T12:02:14.975Z,44.07
2023-05-21T12:04:41.585Z,44.05
2023-05-21T12:07:08.105Z,44.12
2023-05-21T12:09:34.652Z,44.01
2023-05-21T12:12:01.121Z,43.80
2023-05-21T12:14:27.616Z,43.86
2023-05-21T12:16:54.253Z,43.86
2023-05-21T12:19:20.922Z,43.72
2023-05-21T12:21:47.470Z,43.80
2023-05-21T12:24:13.964Z,43.69
2023-05-21T12:26:40.441Z,43.60
2023-05-21T12:29:06.905Z,43.61
2023-05-21T12:31:33.374Z,43.60
2023-05-21T12:33:59.991Z,43.71
2023-05-21T12:36:26.544Z,43.58
2023-05-21T12:38:53.067Z,43.47
2023-05-21T12:41:19.632Z,43.59
2023-05-21T12:43:46.135Z,43.27
2023-05-21T12:46:12.640Z,43.26
2023-05-21T12:48:39.175Z,43.36
2023-05-21T12:51:05.766Z,43.56
2023-05-21T12:53:32.285Z,43.48
2023-05-21T12:55:58.867Z,43.26
2023-05-21T12:58:25.417Z,43.31
2023-05-21T13:00:51.928Z,43.45
2023-05-21T13:03:18.473Z,43.61
2023-05-21T13:05:45.180Z,43.71
2023-05-21T13:08:11.717Z,43.48
2023-05-21T13:10:38.388Z,43.68
2023-05-21T13:13:05.145Z,43.61
2023-05-21T13:15:31.737Z,43.55
2023-05-21T13:17:58.279Z,43.54
2023-05-21T13:20:24.900Z,43.31
2023-05-21T13:22:51.382Z,43.14
2023-05-21T13:25:17.937Z,42.92
2023-05-21T13:27:44.500Z,42.80
2023-05-21T13:30:10.992Z,42.78
2023-05-21T13:32:37.523Z,42.63
2023-05-21T13:35:04.069Z,42.64
2023-05-21T13:37:33.300Z,42.45
2023-05-21T13:39:59.783Z,42.29
2023-05-21T13:42:26.324Z,42.37
2023-05-21T13:44:52.795Z,42.12
2023-05-21T13:47:19.250Z,42.17
2023-05-21T13:49:45.848Z,41.88
2023-05-21T13:52:12.440Z,42.04
2023-05-21T13:54:38.966Z,41.71
2023-05-21T13:57:05.421Z,41.59
2023-05-21T13:59:33.698Z,41.66
2023-05-21T14:02:00.554Z,41.30
2023-05-21T14:04:27.157Z,41.72
2023-05-21T14:06:53.733Z,41.50
2023-05-21T14:09:20.237Z,41.39
2023-05-21T14:11:46.757Z,41.27
2023-05-21T14:14:13.298Z,41.28
2023-05-21T14:16:39.793Z,41.11
2023-05-21T14:19:06.427Z,41.00
2023-05-21T14:21:33.036Z,40.51
2023-05-21T14:23:59.571Z,40.46
2023-05-21T14:26:26.127Z,40.67
2023-05-21T14:28:52.595Z,40.77
2023-05-21T14:31:19.139Z,41.52
2023-05-21T14:33:45.875Z,41.13
2023-05-21T14:36:12.461Z,40.78
2023-05-21T14:38:39.014Z,40.47
2023-05-21T14:41:08.513Z,40.14
2023-05-21T14:43:34.993Z,40.07
2023-05-21T14:46:01.546Z,40.11
2023-05-21T14:48:28.117Z,39.93
2023-05-21T14:50:54.620Z,40.01
2023-05-21T14:53:21.083Z,39.77
2023-05-21T14:55:47.583Z,39.59
2023-05-21T14:58:14.198Z,39.44
2023-05-21T15:00:40.785Z,39.41
2023-05-21T15:03:07.424Z,39.45
2023-05-21T15:05:34.092Z,38.95
2023-05-21T15:08:00.617Z,38.10
2023-05-21T15:10:27.149Z,35.55
2023-05-21T15:12:53.684Z,33.60
2023-05-21T15:15:20.161Z,32.87
2023-05-21T15:17:49.775Z,32.99
2023-05-21T15:20:16.256Z,31.96
2023-05-21T15:22:42.768Z,31.98
2023-05-21T15:25:09.342Z,30.65
2023-05-21T15:27:35.922Z,29.44
2023-05-21T15:30:02.582Z,28.32
2023-05-21T15:32:29.163Z,28.27
2023-05-21T15:34:55.681Z,27.38
2023-05-21T15:37:22.333Z,26.99
2023-05-21T15:39:48.867Z,26.74
2023-05-21T15:42:15.392Z,26.00
2023-05-21T15:44:41.891Z,25.54
2023-05-21T15:47:08.557Z,26.15
2023-05-21T15:49:35.206Z,26.09
2023-05-21T15:52:01.722Z,25.93
2023-05-21T15:54:28.277Z,25.84
2023-05-21T15:56:55.959Z,25.70
2023-05-21T15:59:22.523Z,25.53
2023-05-21T16:01:49.076Z,25.66
2023-05-21T16:04:15.644Z,25.52
2023-05-21T16:06:42.292Z,26.06
2023-05-21T16:09:08.849Z,25.80
2023-05-21T16:11:35.437Z,26.40
2023-05-21T16:14:02.048Z,26.15
2023-05-21T16:16:31.460Z,25.64
2023-05-21T16:19:00.850Z,27.15
2023-05-21T16:21:27.377Z,28.67
2023-05-21T16:23:56.951Z,30.10
2023-05-21T16:26:23.517Z,31.11
2023-05-21T16:28:50.105Z,32.57
2023-05-21T16:31:16.596Z,32.00
2023-05-21T16:33:43.048Z,32.71
2023-05-21T16:36:09.602Z,33.86
2023-05-21T16:38:36.095Z,35.66
2023-05-21T16:41:02.596Z,35.52
2023-05-21T16:43:29.099Z,36.33
2023-05-21T16:45:55.589Z,36.01
2023-05-21T16:48:22.299Z,35.87
2023-05-21T16:50:48.893Z,36.83
2023-05-21T16:53:15.355Z,37.69
2023-05-21T16:55:41.806Z,37.51
2023-05-21T16:58:08.420Z,38.04
2023-05-21T17:00:35.023Z,38.22
2023-05-21T17:03:01.781Z,38.73
2023-05-21T17:05:28.389Z,38.45
2023-05-21T17:07:55.008Z,38.53
2023-05-21T17:10:21.500Z,38.51
2023-05-21T17:12:47.984Z,38.85
2023-05-21T17:15:14.548Z,39.17
2023-05-21T17:17:41.175Z,39.33
2023-05-21T17:20:07.721Z,39.62
2023-05-21T17:22:34.304Z,39.57
2023-05-21T17:25:00.916Z,39.47
2023-05-21T17:27:27.552Z,39.94
2023-05-21T17:29:54.049Z,40.02
2023-05-21T17:32:20.508Z,40.39
2023-05-21T17:34:47.008Z,40.63
2023-05-21T17:37:13.482Z,40.82
2023-05-21T17:39:39.946Z,40.96
2023-05-21T17:42:06.633Z,41.06
2023-05-21T17:44:33.224Z,41.00
2023-05-21T17:46:59.786Z,41.09
2023-05-21T17:49:26.357Z,41.40
2023-05-21T17:51:52.908Z,41.25
2023-05-21T17:54:19.460Z,41.84
2023-05-21T17:56:46.700Z,41.74
2023-05-21T17:59:13.327Z,42.07
2023-05-21T18:01:39.844Z,41.73
2023-05-21T18:04:06.465Z,41.55
2023-05-21T18:06:33.030Z,41.93
2023-05-21T18:08:59.691Z,41.70
2023-05-21T18:11:26.314Z,42.03
2023-05-21T18:13:52.918Z,42.28
2023-05-21T18:16:19.573Z,42.38
2023-05-21T18:18:46.211Z,42.61
2023-05-21T18:21:12.856Z,42.52
2023-05-21T18:23:39.488Z,43.08
2023-05-21T18:26:06.060Z,42.74
2023-05-21T18:28:35.586Z,43.11
2023-05-21T18:31:02.187Z,43.40
2023-05-21T18:33:28.770Z,43.17
2023-05-21T18:35:55.325Z,43.45
2023-05-21T18:38:21.987Z,43.71
2023-05-21T18:40:48.506Z,43.40
2023-05-21T18:43:15.082Z,43.57
2023-05-21T18:45:41.682Z,43.43
2023-05-21T18:48:08.365Z,43.47
2023-05-21T18:50:35.182Z,43.46
2023-05-21T18:53:01.942Z,43.88
2023-05-21T18:55:28.502Z,43.68
2023-05-21T18:57:55.035Z,43.62
2023-05-21T19:00:21.647Z,43.94
2023-05-21T19:02:48.292Z,43.61
2023-05-21T19:05:14.912Z,43.58
2023-05-21T19:07:41.526Z,43.59
2023-05-21T19:10:08.241Z,43.76
2023-05-21T19:12:34.789Z,43.59
2023-05-21T19:15:01.369Z,43.80
2023-05-21T19:17:27.950Z,43.66
2023-05-21T19:19:54.531Z,43.63
2023-05-21T19:22:21.138Z,43.77
2023-05-21T19:24:47.764Z,43.99
2023-05-21T19:27:14.318Z,43.80
2023-05-21T19:29:40.894Z,43.77
2023-05-21T19:32:07.426Z,44.09
2023-05-21T19:34:34.127Z,44.12
2023-05-21T19:37:00.759Z,44.15
2023-05-21T19:39:27.403Z,44.08
2023-05-21T19:41:53.958Z,43.91
2023-05-21T19:44:20.517Z,43.84
2023-05-21T19:46:47.106Z,44.10
2023-05-21T19:49:13.584Z,44.21
2023-05-21T19:51:40.052Z,44.56
2023-05-21T19:54:06.515Z,44.04
2023-05-21T19:56:33.079Z,44.61
2023-05-21T19:58:59.563Z,44.62
2023-05-21T20:01:26.165Z,44.36
2023-05-21T20:03:52.717Z,44.32
2023-05-21T20:06:19.284Z,44.48
2023-05-21T20:08:45.784Z,44.69
2023-05-21T20:11:12.292Z,44.75
2023-05-21T20:13:38.815Z,44.82
2023-05-21T20:16:05.382Z,44.65
2023-05-21T20:18:31.923Z,44.75
2023-05-21T20:20:58.439Z,44.83
2023-05-21T20:23:24.911Z,44.68
2023-05-21T20:25:51.425Z,44.74
2023-05-21T20:28:17.998Z,44.72
2023-05-21T20:30:44.698Z,44.88
2023-05-21T20:33:11.218Z,44.52
2023-05-21T20:35:37.841Z,44.92
2023-05-21T20:38:04.359Z,45.09
2023-05-21T20:40:30.914Z,45.20
2023-05-21T20:42:57.410Z,44.91
2023-05-21T20:45:23.906Z,44.95
2023-05-21T20:47:50.488Z,44.84
2023-05-21T20:50:17.086Z,45.23
2023-05-21T20:52:45.492Z,45.10
2023-05-21T20:55:13.476Z,44.84
2023-05-21T20:57:39.983Z,44.76
2023-05-21T21:00:06.498Z,45.03
2023-05-21T21:02:33.120Z,44.91
2023-05-21T21:04:59.637Z,45.14
2023-05-21T21:07:26.129Z,45.39
2023-05-21T21:09:52.682Z,45.51
2023-05-21T21:12:25.356Z,45.48
2023-05-21T21:14:53.324Z,45.13
2023-05-21T21:17:19.931Z,45.47
2023-05-21T21:19:46.417Z,45.49
2023-05-21T21:22:12.939Z,45.39
2023-05-21T21:24:39.525Z,45.06
2023-05-21T21:27:06.085Z,45.17
2023-05-21T21:29:32.639Z,45.12
2023-05-21T21:31:59.093Z,45.63
2023-05-21T21:34:25.648Z,45.34
2023-05-21T21:36:52.192Z,45.51
2023-05-21T21:39:18.747Z,45.57
2023-05-21T21:41:45.244Z,45.75
2023-05-21T21:44:13.155Z,46.05
2023-05-21T21:46:39.755Z,45.72
2023-05-21T21:49:06.399Z,45.89
2023-05-21T21:51:32.920Z,45.72
2023-05-21T21:53:59.483Z,45.79
2023-05-21T21:56:26.019Z,45.71
2023-05-21T21:58:52.623Z,45.83
2023-05-21T22:01:19.263Z,45.53
2023-05-21T22:03:45.889Z,45.91
2023-05-21T22:06:12.378Z,45.84
2023-05-21T22:08:38.912Z,46.05
2023-05-21T22:11:05.557Z,45.79
2023-05-21T22:13:32.168Z,45.54
2023-05-21T22:15:58.695Z,45.72
2023-05-21T22:18:38.829Z,45.82
2023-05-21T22:21:07.446Z,45.70
2023-05-21T22:23:34.074Z,45.90
2023-05-21T22:26:00.667Z,45.73
2023-05-21T22:28:27.245Z,45.38
2023-05-21T22:30:53.716Z,45.33
2023-05-21T22:33:20.343Z,45.82
2023-05-21T22:35:46.906Z,45.73
2023-05-21T22:38:13.437Z,45.74
2023-05-21T22:40:40.301Z,45.82
2023-05-21T22:43:07.087Z,46.02
2023-05-21T22:45:33.644Z,45.71
2023-05-21T22:48:00.268Z,45.50
2023-05-21T22:50:26.911Z,45.97
2023-05-21T22:52:53.447Z,46.07
2023-05-21T22:55:20.046Z,45.83
2023-05-21T22:57:46.545Z,45.78
2023-05-21T23:00:13.158Z,46.01
2023-05-21T23:02:39.732Z,45.85
2023-05-21T23:05:06.373Z,45.77
2023-05-21T23:07:32.988Z,45.51
2023-05-21T23:09:59.694Z,46.04
2023-05-21T23:12:26.280Z,45.63
2023-05-21T23:14:52.869Z,45.81
2023-05-21T23:17:19.412Z,46.02
2023-05-21T23:19:46.014Z,45.79
2023-05-21T23:22:12.526Z,45.97
2023-05-21T23:24:39.098Z,45.74
2023-05-21T23:27:05.664Z,45.90
2023-05-21T23:29:32.226Z,45.79
2023-05-21T23:31:58.910Z,45.72
2023-05-21T23:34:25.376Z,45.56
2023-05-21T23:36:51.983Z,45.73
2023-05-21T23:39:18.539Z,45.54
2023-05-21T23:41:45.087Z,45.76
2023-05-21T23:44:11.731Z,45.78
2023-05-21T23:46:38.299Z,45.77
2023-05-21T23:49:04.814Z,46.07
2023-05-21T23:51:31.420Z,45.85
2023-05-21T23:53:57.962Z,45.82
2023-05-21T23:56:24.527Z,45.85
2023-05-21T23:58:51.141Z,46.01
